createdAt,value
2018-10-07T00:01:41.160Z,16.29
2018-10-07T00:04:09.410Z,16.26
2018-10-07T00:06:37.620Z,16.42
2018-10-07T00:09:07.087Z,16.39
2018-10-07T00:11:35.627Z,16.42
2018-10-07T00:14:03.976Z,16.31
2018-10-07T00:16:32.297Z,16.25
2018-10-07T00:19:00.541Z,16.34
2018-10-07T00:21:28.737Z,16.39
2018-10-07T00:23:56.946Z,15.97
2018-10-07T00:26:25.219Z,16.11
2018-10-07T00:28:53.469Z,16.28
2018-10-07T00:31:21.745Z,16.18
2018-10-07T00:33:49.973Z,16.12
2018-10-07T00:36:18.228Z,16.37
2018-10-07T00:38:46.422Z,16.39
2018-10-07T00:41:14.692Z,16.42
2018-10-07T00:43:42.969Z,16.26
2018-10-07T00:46:11.242Z,16.41
2018-10-07T00:48:39.445Z,16.46
2018-10-07T00:51:07.662Z,16.50
2018-10-07T00:53:36.146Z,16.54
2018-10-07T00:56:04.392Z,16.68
2018-10-07T00:58:33.262Z,16.66
2018-10-07T01:01:01.497Z,16.73
2018-10-07T01:03:29.722Z,16.74
2018-10-07T01:05:57.980Z,16.72
2018-10-07T01:08:26.237Z,16.66
2018-10-07T01:10:54.473Z,16.69
2018-10-07T01:13:22.723Z,16.41
2018-10-07T01:15:50.975Z,16.28
2018-10-07T01:18:19.221Z,16.23
2018-10-07T01:20:47.478Z,16.04
2018-10-07T01:23:15.706Z,15.84
2018-10-07T01:25:43.932Z,15.84
2018-10-07T01:28:12.181Z,15.89
2018-10-07T01:30:40.447Z,15.96
2018-10-07T01:33:08.635Z,15.89
2018-10-07T01:35:36.864Z,15.96
2018-10-07T01:38:05.106Z,15.96
2018-10-07T01:40:33.329Z,15.94
2018-10-07T01:43:01.534Z,16.02
2018-10-07T01:45:29.755Z,16.21
2018-10-07T01:47:57.991Z,16.24
2018-10-07T01:50:26.212Z,16.25
2018-10-07T01:52:54.458Z,16.04
2018-10-07T01:55:22.650Z,15.81
2018-10-07T01:57:50.852Z,15.71
2018-10-07T02:00:19.086Z,15.71
2018-10-07T02:02:47.330Z,15.76
2018-10-07T02:05:15.642Z,15.87
2018-10-07T02:07:43.966Z,16.10
2018-10-07T02:10:12.220Z,16.08
2018-10-07T02:12:40.446Z,15.95
2018-10-07T02:15:08.742Z,16.00
2018-10-07T02:17:36.971Z,15.89
2018-10-07T02:20:05.211Z,15.97
2018-10-07T02:22:33.466Z,16.08
2018-10-07T02:25:01.726Z,16.05
2018-10-07T02:27:30.053Z,16.20
2018-10-07T02:29:58.262Z,16.14
2018-10-07T02:32:26.482Z,16.17
2018-10-07T02:34:54.726Z,15.93
2018-10-07T02:37:22.990Z,15.95
2018-10-07T02:39:51.206Z,16.05
2018-10-07T02:42:19.466Z,16.05
2018-10-07T02:44:47.687Z,15.91
2018-10-07T02:47:15.915Z,15.86
2018-10-07T02:49:44.127Z,15.91
2018-10-07T02:52:12.482Z,16.03
2018-10-07T02:54:40.743Z,15.98
2018-10-07T02:57:09.014Z,15.99
2018-10-07T02:59:37.298Z,15.94
2018-10-07T03:02:05.546Z,15.83
2018-10-07T03:04:33.843Z,15.83
2018-10-07T03:07:02.164Z,15.90
2018-10-07T03:09:30.389Z,16.01
2018-10-07T03:11:58.609Z,15.93
2018-10-07T03:14:26.834Z,15.80
2018-10-07T03:16:55.041Z,15.86
2018-10-07T03:19:23.236Z,15.86
2018-10-07T03:21:51.434Z,15.91
2018-10-07T03:24:19.649Z,15.91
2018-10-07T03:26:47.858Z,15.75
2018-10-07T03:29:16.154Z,15.90
2018-10-07T03:31:44.369Z,15.88
2018-10-07T03:34:12.596Z,15.77
2018-10-07T03:36:40.827Z,15.70
2018-10-07T03:39:09.440Z,15.73
2018-10-07T03:41:37.738Z,15.69
2018-10-07T03:44:05.972Z,15.41
2018-10-07T03:46:34.204Z,15.32
2018-10-07T03:49:02.529Z,15.27
2018-10-07T03:51:30.734Z,15.24
2018-10-07T03:53:58.949Z,15.28
2018-10-07T03:56:27.158Z,15.28
2018-10-07T03:58:55.381Z,15.36
2018-10-07T04:01:23.599Z,15.58
2018-10-07T04:03:51.857Z,15.60
2018-10-07T04:06:20.074Z,15.59
2018-10-07T04:08:48.289Z,15.47
2018-10-07T04:11:16.491Z,15.55
2018-10-07T04:13:44.685Z,15.63
2018-10-07T04:16:12.917Z,15.49
2018-10-07T04:18:41.170Z,15.36
2018-10-07T04:21:09.400Z,15.38
2018-10-07T04:23:37.604Z,15.39
2018-10-07T04:26:05.829Z,15.32
2018-10-07T04:28:34.073Z,15.28
2018-10-07T04:31:02.282Z,15.17
2018-10-07T04:33:30.493Z,15.12
2018-10-07T04:35:58.705Z,15.07
2018-10-07T04:38:26.917Z,15.06
2018-10-07T04:40:55.129Z,15.01
2018-10-07T04:43:23.362Z,15.04
2018-10-07T04:45:51.594Z,15.05
2018-10-07T04:48:19.785Z,15.16
2018-10-07T04:50:48.022Z,15.19
2018-10-07T04:53:16.249Z,15.20
2018-10-07T04:55:44.462Z,15.34
2018-10-07T04:58:12.664Z,15.33
2018-10-07T05:00:40.898Z,15.43
2018-10-07T05:03:09.137Z,15.55
2018-10-07T05:05:37.480Z,15.58
2018-10-07T05:08:06.174Z,15.41
2018-10-07T05:10:54.152Z,15.52
2018-10-07T05:13:24.330Z,15.34
2018-10-07T05:15:55.645Z,15.45
2018-10-07T05:18:24.341Z,15.51
2018-10-07T05:20:52.850Z,15.48
2018-10-07T05:23:21.304Z,15.32
2018-10-07T05:25:49.546Z,15.36
2018-10-07T05:28:18.296Z,15.46
2018-10-07T05:30:46.561Z,15.56
2018-10-07T05:33:14.923Z,15.50
2018-10-07T05:35:43.272Z,15.51
2018-10-07T05:38:11.477Z,15.51
2018-10-07T05:40:39.697Z,15.72
2018-10-07T05:43:07.936Z,15.57
2018-10-07T05:45:36.139Z,15.60
2018-10-07T05:48:04.361Z,15.71
2018-10-07T05:50:32.617Z,15.62
2018-10-07T05:53:00.850Z,15.65
2018-10-07T05:55:29.065Z,15.73
2018-10-07T05:57:59.498Z,15.62
2018-10-07T06:00:28.729Z,15.59
2018-10-07T06:03:07.339Z,15.50
2018-10-07T06:05:36.770Z,15.42
2018-10-07T06:08:05.011Z,15.55
2018-10-07T06:10:33.258Z,15.44
2018-10-07T06:13:01.504Z,15.39
2018-10-07T06:15:45.564Z,15.52
2018-10-07T06:18:13.970Z,15.45
2018-10-07T06:20:42.285Z,15.63
2018-10-07T06:23:10.750Z,15.70
2018-10-07T06:25:39.021Z,15.69
2018-10-07T06:28:08.781Z,15.67
2018-10-07T06:30:37.513Z,15.78
2018-10-07T06:33:05.769Z,15.75
2018-10-07T06:35:34.081Z,15.72
2018-10-07T06:38:02.338Z,15.54
2018-10-07T06:40:30.616Z,15.39
2018-10-07T06:42:58.874Z,15.44
2018-10-07T06:45:27.152Z,15.32
2018-10-07T06:47:55.368Z,15.30
2018-10-07T06:50:23.612Z,15.21
2018-10-07T06:52:51.978Z,15.19
2018-10-07T06:55:20.208Z,15.20
2018-10-07T06:57:48.503Z,15.14
2018-10-07T07:00:16.702Z,15.10
2018-10-07T07:02:44.962Z,15.14
2018-10-07T07:05:13.164Z,15.09
2018-10-07T07:07:41.385Z,15.06
2018-10-07T07:10:09.654Z,14.91
2018-10-07T07:12:37.942Z,14.91
2018-10-07T07:15:06.202Z,14.95
2018-10-07T07:17:34.406Z,14.83
2018-10-07T07:20:02.686Z,14.89
2018-10-07T07:22:30.868Z,14.80
2018-10-07T07:24:59.158Z,14.71
2018-10-07T07:27:27.462Z,14.69
2018-10-07T07:29:55.770Z,14.67
2018-10-07T07:32:24.045Z,14.65
2018-10-07T07:34:52.365Z,14.59
2018-10-07T07:37:21.638Z,14.56
2018-10-07T07:39:49.846Z,14.49
2018-10-07T07:42:18.142Z,14.50
2018-10-07T07:44:46.301Z,14.51
2018-10-07T07:47:14.540Z,14.62
2018-10-07T07:49:42.763Z,14.36
2018-10-07T07:52:10.985Z,14.32
2018-10-07T07:54:40.279Z,14.24
2018-10-07T07:57:08.531Z,14.20
2018-10-07T07:59:36.753Z,14.24
2018-10-07T08:02:05.010Z,14.18
2018-10-07T08:04:33.229Z,14.23
2018-10-07T08:07:01.477Z,14.23
2018-10-07T08:09:29.739Z,14.23
2018-10-07T08:11:58.014Z,13.93
2018-10-07T08:14:26.235Z,13.87
2018-10-07T08:16:54.456Z,13.92
2018-10-07T08:19:22.657Z,13.87
2018-10-07T08:21:50.865Z,13.91
2018-10-07T08:24:20.246Z,13.69
2018-10-07T08:26:48.453Z,13.84
2018-10-07T08:29:16.745Z,13.68
2018-10-07T08:31:44.977Z,13.56
2018-10-07T08:34:13.346Z,13.76
2018-10-07T08:36:41.634Z,13.76
2018-10-07T08:39:10.301Z,13.58
2018-10-07T08:41:38.729Z,13.72
2018-10-07T08:44:07.221Z,13.53
2018-10-07T08:46:36.509Z,13.32
2018-10-07T08:49:04.728Z,13.48
2018-10-07T08:51:32.946Z,13.42
2018-10-07T08:54:01.189Z,13.49
2018-10-07T08:56:29.730Z,13.49
2018-10-07T08:58:57.881Z,13.39
2018-10-07T09:01:26.114Z,13.28
2018-10-07T09:03:54.328Z,13.22
2018-10-07T09:06:22.529Z,13.00
2018-10-07T09:08:50.776Z,13.17
2018-10-07T09:11:18.966Z,13.29
2018-10-07T09:13:48.267Z,13.10
2018-10-07T09:16:16.486Z,13.14
2018-10-07T09:18:44.698Z,13.27
2018-10-07T09:21:12.949Z,13.27
2018-10-07T09:23:41.186Z,13.17
2018-10-07T09:26:09.405Z,13.29
2018-10-07T09:28:37.701Z,13.38
2018-10-07T09:31:06.108Z,13.36
2018-10-07T09:33:34.300Z,13.48
2018-10-07T09:36:02.502Z,13.42
2018-10-07T09:38:30.750Z,13.50
2018-10-07T09:40:59.056Z,13.46
2018-10-07T09:43:27.269Z,13.51
2018-10-07T09:45:55.568Z,13.59
2018-10-07T09:48:23.857Z,13.73
2018-10-07T09:50:52.105Z,13.76
2018-10-07T09:53:20.338Z,13.70
2018-10-07T09:55:48.585Z,13.85
2018-10-07T09:58:16.783Z,13.87
2018-10-07T10:00:45.001Z,13.97
2018-10-07T10:03:13.200Z,14.03
2018-10-07T10:05:41.463Z,14.18
2018-10-07T10:08:10.325Z,14.17
2018-10-07T10:10:38.598Z,14.08
2018-10-07T10:13:06.925Z,14.05
2018-10-07T10:15:35.158Z,14.00
2018-10-07T10:18:06.360Z,14.20
2018-10-07T10:20:48.529Z,14.10
2018-10-07T10:23:30.002Z,14.41
2018-10-07T10:26:10.607Z,14.40
2018-10-07T10:28:46.938Z,14.49
2018-10-07T10:31:20.795Z,14.82
2018-10-07T10:34:09.969Z,14.57
2018-10-07T10:36:49.303Z,14.61
2018-10-07T10:40:24.750Z,14.54
2018-10-07T10:43:07.838Z,14.19
2018-10-07T10:45:40.119Z,14.52
2018-10-07T10:48:15.556Z,14.60
2018-10-07T10:50:52.754Z,14.43
2018-10-07T10:53:25.058Z,14.27
2018-10-07T10:56:05.243Z,14.18
2018-10-07T11:00:54.999Z,14.16
2018-10-07T11:03:31.109Z,14.03
2018-10-07T11:06:07.226Z,14.30
2018-10-07T11:08:45.809Z,14.45
2018-10-07T11:11:22.081Z,14.33
2018-10-07T11:13:57.321Z,14.34
2018-10-07T11:16:43.787Z,14.53
2018-10-07T11:19:32.697Z,14.54
2018-10-07T11:22:34.561Z,14.48
2018-10-07T11:26:16.931Z,14.53
2018-10-07T11:30:21.036Z,14.49
2018-10-07T11:32:58.625Z,14.44
2018-10-07T11:38:12.942Z,14.46
2018-10-07T11:40:49.701Z,14.76
2018-10-07T11:44:34.663Z,14.80
2018-10-07T11:47:16.842Z,14.99
2018-10-07T11:49:53.321Z,14.69
2018-10-07T11:54:01.790Z,14.79
2018-10-07T11:56:30.049Z,14.82
2018-10-07T11:58:58.273Z,14.81
2018-10-07T12:01:27.558Z,14.87
2018-10-07T12:03:56.030Z,15.08
2018-10-07T12:06:24.617Z,15.00
2018-10-07T12:08:52.854Z,14.95
2018-10-07T12:11:21.073Z,14.98
2018-10-07T12:13:49.310Z,14.94
2018-10-07T12:16:17.599Z,14.95
2018-10-07T12:18:45.977Z,15.04
2018-10-07T12:21:14.218Z,14.96
2018-10-07T12:23:42.449Z,14.83
2018-10-07T12:26:10.698Z,14.92
2018-10-07T12:28:40.021Z,14.99
2018-10-07T12:31:08.530Z,15.08
2018-10-07T12:33:36.761Z,15.12
2018-10-07T12:36:05.354Z,15.11
2018-10-07T12:38:33.641Z,14.92
2018-10-07T12:41:01.888Z,14.92
2018-10-07T12:43:30.108Z,15.02
2018-10-07T12:45:58.317Z,15.02
2018-10-07T12:48:26.539Z,14.99
2018-10-07T12:50:54.768Z,14.95
2018-10-07T12:53:23.012Z,14.97
2018-10-07T12:55:51.258Z,15.02
2018-10-07T12:58:19.494Z,15.13
2018-10-07T13:00:47.702Z,15.15
2018-10-07T13:03:16.965Z,15.26
2018-10-07T13:05:45.217Z,15.30
2018-10-07T13:08:13.519Z,15.30
2018-10-07T13:10:41.811Z,15.47
2018-10-07T13:13:10.066Z,15.42
2018-10-07T13:15:38.476Z,15.63
2018-10-07T13:18:06.764Z,15.58
2018-10-07T13:20:35.039Z,15.34
2018-10-07T13:23:03.358Z,15.48
2018-10-07T13:25:31.565Z,15.60
2018-10-07T13:27:59.781Z,15.64
2018-10-07T13:30:28.026Z,16.03
2018-10-07T13:32:56.334Z,16.19
2018-10-07T13:35:24.631Z,16.27
2018-10-07T13:37:52.896Z,16.14
2018-10-07T13:40:21.174Z,16.34
2018-10-07T13:42:49.441Z,16.35
2018-10-07T13:45:17.802Z,16.41
2018-10-07T13:47:46.237Z,16.49
2018-10-07T13:50:16.489Z,16.18
2018-10-07T13:52:44.755Z,16.36
2018-10-07T13:55:13.034Z,16.36
2018-10-07T13:57:41.254Z,16.24
2018-10-07T14:00:09.456Z,16.48
2018-10-07T14:02:37.818Z,16.55
2018-10-07T14:05:06.013Z,16.61
2018-10-07T14:07:34.353Z,16.61
2018-10-07T14:10:02.555Z,16.44
2018-10-07T14:12:30.793Z,16.79
2018-10-07T14:14:59.041Z,16.91
2018-10-07T14:17:27.253Z,16.86
2018-10-07T14:19:55.543Z,16.90
2018-10-07T14:22:23.754Z,16.75
2018-10-07T14:24:51.981Z,16.87
2018-10-07T14:27:20.193Z,16.76
2018-10-07T14:29:48.502Z,16.86
2018-10-07T14:32:16.827Z,16.87
2018-10-07T14:34:45.054Z,16.70
2018-10-07T14:37:13.325Z,16.62
2018-10-07T14:39:41.629Z,16.77
2018-10-07T14:42:09.971Z,16.73
2018-10-07T14:44:39.237Z,16.70
2018-10-07T14:47:07.461Z,16.66
2018-10-07T14:49:35.706Z,16.77
2018-10-07T14:52:05.145Z,16.89
2018-10-07T14:54:33.497Z,16.79
2018-10-07T14:57:02.759Z,16.90
2018-10-07T14:59:31.052Z,16.81
2018-10-07T15:02:02.706Z,16.91
2018-10-07T15:04:30.967Z,17.00
2018-10-07T15:06:59.153Z,16.83
2018-10-07T15:09:27.385Z,16.82
2018-10-07T15:11:55.682Z,16.67
2018-10-07T15:14:23.929Z,16.55
2018-10-07T15:16:52.130Z,16.75
2018-10-07T15:19:20.357Z,16.82
2018-10-07T15:21:48.606Z,16.74
2018-10-07T15:24:16.791Z,16.80
2018-10-07T15:26:45.019Z,16.90
2018-10-07T15:29:13.279Z,16.86
2018-10-07T15:31:41.421Z,16.95
2018-10-07T15:34:09.631Z,16.83
2018-10-07T15:36:37.882Z,16.87
2018-10-07T15:39:07.024Z,16.84
2018-10-07T15:41:35.282Z,16.91
2018-10-07T15:44:03.512Z,16.95
2018-10-07T15:46:31.837Z,16.89
2018-10-07T15:49:00.094Z,16.74
2018-10-07T15:51:28.290Z,16.78
2018-10-07T15:53:56.533Z,16.59
2018-10-07T15:56:24.769Z,16.58
2018-10-07T15:58:53.067Z,16.60
2018-10-07T16:01:21.321Z,16.52
2018-10-07T16:03:49.530Z,16.50
2018-10-07T16:06:18.894Z,16.51
2018-10-07T16:08:47.179Z,16.52
2018-10-07T16:11:15.345Z,16.51
2018-10-07T16:13:43.574Z,16.48
2018-10-07T16:16:11.895Z,16.55
2018-10-07T16:18:40.163Z,16.44
2018-10-07T16:21:08.337Z,16.39
2018-10-07T16:23:36.582Z,16.34
2018-10-07T16:26:04.847Z,16.48
2018-10-07T16:28:33.000Z,16.50
2018-10-07T16:31:01.303Z,16.40
2018-10-07T16:33:29.637Z,16.34
2018-10-07T16:35:57.872Z,16.19
2018-10-07T16:38:26.321Z,16.08
2018-10-07T16:40:54.541Z,16.17
2018-10-07T16:43:22.760Z,16.02
2018-10-07T16:45:51.022Z,15.94
2018-10-07T16:48:19.358Z,15.98
2018-10-07T16:50:47.622Z,16.03
2018-10-07T16:53:15.943Z,15.99
2018-10-07T16:55:44.229Z,15.88
2018-10-07T16:58:12.438Z,15.91
2018-10-07T17:00:40.679Z,16.00
2018-10-07T17:03:09.045Z,15.96
2018-10-07T17:05:37.260Z,15.94
2018-10-07T17:08:05.558Z,15.79
2018-10-07T17:10:33.786Z,15.79
2018-10-07T17:13:02.201Z,15.75
2018-10-07T17:15:30.571Z,15.70
2018-10-07T17:17:58.811Z,15.57
2018-10-07T17:20:27.166Z,15.52
2018-10-07T17:22:55.511Z,15.35
2018-10-07T17:25:23.730Z,15.10
2018-10-07T17:27:52.003Z,15.25
2018-10-07T17:30:20.285Z,15.12
2018-10-07T17:32:49.668Z,15.10
2018-10-07T17:35:18.231Z,15.15
2018-10-07T17:37:46.553Z,15.06
2018-10-07T17:40:14.814Z,14.89
2018-10-07T17:42:43.882Z,14.87
2018-10-07T17:45:12.294Z,14.76
2018-10-07T17:47:40.959Z,14.80
2018-10-07T17:50:09.231Z,14.59
2018-10-07T17:52:37.917Z,14.69
2018-10-07T17:55:06.250Z,14.80
2018-10-07T17:57:34.861Z,14.50
2018-10-07T18:00:04.329Z,14.75
2018-10-07T18:02:32.869Z,14.68
2018-10-07T18:05:01.720Z,14.57
2018-10-07T18:07:30.398Z,14.59
2018-10-07T18:09:59.317Z,14.48
2018-10-07T18:12:28.245Z,14.44
2018-10-07T18:14:56.621Z,14.15
2018-10-07T18:17:26.410Z,14.16
2018-10-07T18:19:54.904Z,14.25
2018-10-07T18:22:23.263Z,13.98
2018-10-07T18:24:51.652Z,13.85
2018-10-07T18:27:19.829Z,13.96
2018-10-07T18:29:49.179Z,14.02
2018-10-07T18:32:17.390Z,13.66
2018-10-07T18:34:46.352Z,13.91
2018-10-07T18:37:14.509Z,13.90
2018-10-07T18:39:42.721Z,13.85
2018-10-07T18:42:10.998Z,13.65
2018-10-07T18:44:40.463Z,13.70
2018-10-07T18:47:08.691Z,13.60
2018-10-07T18:49:37.121Z,13.62
2018-10-07T18:52:06.492Z,13.77
2018-10-07T18:54:34.726Z,13.84
2018-10-07T18:57:02.941Z,13.94
2018-10-07T18:59:31.245Z,13.68
2018-10-07T19:02:00.577Z,13.80
2018-10-07T19:04:28.794Z,13.67
2018-10-07T19:06:57.005Z,13.58
2018-10-07T19:09:26.272Z,13.63
2018-10-07T19:11:54.467Z,13.48
2018-10-07T19:14:22.746Z,13.51
2018-10-07T19:16:50.934Z,13.51
2018-10-07T19:19:19.454Z,13.45
2018-10-07T19:21:47.742Z,13.34
2018-10-07T19:24:15.962Z,13.38
2018-10-07T19:26:44.174Z,13.06
2018-10-07T19:29:12.377Z,13.11
2018-10-07T19:31:40.617Z,13.32
2018-10-07T19:34:08.943Z,13.31
2018-10-07T19:36:37.229Z,13.23
2018-10-07T19:39:08.035Z,13.16
2018-10-07T19:41:36.320Z,13.05
2018-10-07T19:44:04.729Z,12.91
2018-10-07T19:46:33.505Z,12.92
2018-10-07T19:49:02.520Z,12.79
2018-10-07T19:51:31.029Z,12.91
2018-10-07T19:53:59.663Z,12.86
2018-10-07T19:56:28.065Z,12.74
2018-10-07T19:58:56.806Z,12.80
2018-10-07T20:01:25.501Z,12.76
2018-10-07T20:03:54.177Z,12.90
2018-10-07T20:06:22.722Z,12.94
2018-10-07T20:08:51.350Z,12.74
2018-10-07T20:11:19.978Z,12.78
2018-10-07T20:13:48.506Z,12.64
2018-10-07T20:16:17.056Z,12.51
2018-10-07T20:18:45.756Z,12.52
2018-10-07T20:21:14.359Z,12.41
2018-10-07T20:23:43.146Z,12.32
2018-10-07T20:26:11.563Z,12.62
2018-10-07T20:28:39.821Z,12.53
2018-10-07T20:31:08.372Z,12.48
2018-10-07T20:33:36.613Z,12.55
2018-10-07T20:36:05.218Z,12.47
2018-10-07T20:38:33.991Z,12.31
2018-10-07T20:41:02.253Z,12.46
2018-10-07T20:43:30.486Z,12.30
2018-10-07T20:45:58.718Z,12.16
2018-10-07T20:48:27.075Z,11.95
2018-10-07T20:50:57.190Z,11.99
2018-10-07T20:53:25.716Z,12.07
2018-10-07T20:55:55.327Z,12.13
2018-10-07T20:58:23.712Z,12.08
2018-10-07T21:00:51.949Z,12.02
2018-10-07T21:03:20.230Z,12.13
2018-10-07T21:05:48.481Z,12.15
2018-10-07T21:08:16.728Z,12.19
2018-10-07T21:10:44.946Z,11.99
2018-10-07T21:13:13.206Z,12.12
2018-10-07T21:15:43.421Z,12.07
2018-10-07T21:18:12.737Z,11.87
2018-10-07T21:20:41.009Z,11.88
2018-10-07T21:23:09.318Z,11.98
2018-10-07T21:25:37.593Z,11.62
2018-10-07T21:28:06.836Z,11.66
2018-10-07T21:30:35.113Z,11.85
2018-10-07T21:33:03.408Z,11.58
2018-10-07T21:35:31.629Z,11.61
2018-10-07T21:37:59.816Z,11.14
2018-10-07T21:40:28.008Z,11.37
2018-10-07T21:42:56.241Z,11.28
2018-10-07T21:45:24.494Z,11.35
2018-10-07T21:47:52.693Z,11.19
2018-10-07T21:50:21.025Z,11.37
2018-10-07T21:52:49.250Z,11.22
2018-10-07T21:55:17.477Z,11.14
2018-10-07T21:57:45.681Z,11.29
2018-10-07T22:00:13.937Z,11.33
2018-10-07T22:02:42.157Z,11.39
2018-10-07T22:05:10.379Z,11.46
2018-10-07T22:07:38.593Z,11.24
2018-10-07T22:10:06.830Z,11.56
2018-10-07T22:12:35.074Z,11.39
2018-10-07T22:15:03.302Z,11.36
2018-10-07T22:17:31.521Z,11.49
2018-10-07T22:19:59.741Z,11.15
2018-10-07T22:22:27.965Z,11.22
2018-10-07T22:24:56.229Z,11.09
2018-10-07T22:27:24.436Z,11.15
2018-10-07T22:29:52.640Z,11.20
2018-10-07T22:32:20.853Z,11.31
2018-10-07T22:34:49.100Z,11.29
2018-10-07T22:37:17.319Z,11.24
2018-10-07T22:39:45.539Z,11.02
2018-10-07T22:42:13.773Z,11.12
2018-10-07T22:44:42.046Z,11.05
2018-10-07T22:47:10.277Z,11.14
2018-10-07T22:49:38.514Z,10.78
2018-10-07T22:52:06.874Z,10.86
2018-10-07T22:54:35.092Z,10.72
2018-10-07T22:57:03.304Z,10.78
2018-10-07T22:59:31.525Z,10.89
2018-10-07T23:01:59.777Z,10.96
2018-10-07T23:04:28.006Z,10.79
2018-10-07T23:06:56.238Z,10.73
2018-10-07T23:09:24.461Z,10.74
2018-10-07T23:11:52.682Z,10.57
2018-10-07T23:14:20.910Z,10.62
2018-10-07T23:16:49.149Z,10.63
2018-10-07T23:19:17.377Z,10.69
2018-10-07T23:21:45.602Z,10.82
2018-10-07T23:24:13.815Z,10.85
2018-10-07T23:26:42.015Z,10.60
2018-10-07T23:29:10.277Z,10.83
2018-10-07T23:31:38.758Z,10.85
2018-10-07T23:34:07.230Z,10.61
2018-10-07T23:36:35.508Z,10.70
2018-10-07T23:39:04.645Z,10.71
2018-10-07T23:41:32.914Z,10.73
2018-10-07T23:44:01.144Z,10.77
2018-10-07T23:46:29.366Z,10.79
2018-10-07T23:48:57.602Z,10.69
2018-10-07T23:51:25.903Z,10.59
2018-10-07T23:53:54.225Z,10.67
2018-10-07T23:56:22.418Z,10.60
2018-10-07T23:58:50.710Z,10.68
